createdAt,value
2023-04-21T00:02:36.020Z,10.85
2023-04-21T00:05:42.679Z,10.93
2023-04-21T00:08:45.430Z,10.90
2023-04-21T00:11:48.388Z,10.88
2023-04-21T00:14:50.997Z,10.81
2023-04-21T00:17:54.116Z,10.84
2023-04-21T00:20:57.788Z,10.69
2023-04-21T00:24:01.060Z,10.63
2023-04-21T00:27:03.810Z,10.55
2023-04-21T00:30:07.521Z,10.44
2023-04-21T00:33:12.261Z,10.28
2023-04-21T00:36:15.195Z,10.31
2023-04-21T00:39:18.210Z,10.40
2023-04-21T00:42:22.812Z,10.34
2023-04-21T00:45:25.513Z,10.33
2023-04-21T00:48:28.571Z,9.94
2023-04-21T00:51:33.788Z,9.88
2023-04-21T00:54:37.050Z,9.70
2023-04-21T00:57:39.792Z,9.41
2023-04-21T01:00:44.643Z,9.24
2023-04-21T01:03:47.852Z,9.11
2023-04-21T01:06:51.703Z,9.13
2023-04-21T01:09:54.728Z,9.27
2023-04-21T01:12:59.026Z,9.52
2023-04-21T01:16:01.701Z,9.47
2023-04-21T01:19:05.988Z,9.70
2023-04-21T01:22:11.316Z,9.55
2023-04-21T01:25:15.182Z,9.24
2023-04-21T01:28:25.929Z,8.88
2023-04-21T01:31:29.136Z,8.61
2023-04-21T01:34:31.886Z,8.47
2023-04-21T01:37:35.076Z,8.29
2023-04-21T01:40:37.889Z,8.13
2023-04-21T01:43:40.992Z,7.91
2023-04-21T01:46:43.831Z,7.84
2023-04-21T01:49:46.913Z,7.83
2023-04-21T01:52:49.503Z,7.73
2023-04-21T01:55:52.839Z,7.73
2023-04-21T01:58:55.553Z,7.54
2023-04-21T02:01:59.489Z,7.52
2023-04-21T02:05:02.467Z,7.25
2023-04-21T02:08:05.326Z,7.21
2023-04-21T02:11:08.447Z,7.12
2023-04-21T02:14:11.299Z,7.10
2023-04-21T02:17:16.789Z,7.00
2023-04-21T02:20:19.935Z,6.87
2023-04-21T02:23:22.674Z,6.84
2023-04-21T02:26:25.785Z,6.77
2023-04-21T02:29:28.995Z,6.71
2023-04-21T02:32:32.593Z,6.66
2023-04-21T02:35:35.494Z,6.71
2023-04-21T02:38:38.558Z,6.80
2023-04-21T02:41:41.584Z,6.88
2023-04-21T02:44:44.775Z,6.92
2023-04-21T02:47:47.580Z,7.02
2023-04-21T02:50:53.043Z,7.01
2023-04-21T02:53:59.868Z,7.19
2023-04-21T02:57:03.342Z,7.18
2023-04-21T03:00:07.540Z,7.38
2023-04-21T03:03:10.901Z,7.44
2023-04-21T03:06:14.277Z,7.35
2023-04-21T03:09:17.466Z,7.67
2023-04-21T03:12:20.193Z,7.92
2023-04-21T03:15:25.025Z,8.04
2023-04-21T03:18:28.218Z,8.17
2023-04-21T03:21:31.934Z,8.41
2023-04-21T03:24:34.704Z,8.45
2023-04-21T03:27:37.728Z,8.60
2023-04-21T03:30:40.545Z,8.76
2023-04-21T03:33:43.694Z,8.89
2023-04-21T03:36:46.373Z,9.00
2023-04-21T03:39:49.640Z,9.05
2023-04-21T03:42:53.805Z,9.19
2023-04-21T03:45:56.975Z,9.12
2023-04-21T03:49:01.229Z,8.98
2023-04-21T03:52:05.804Z,8.83
2023-04-21T03:55:11.921Z,8.68
2023-04-21T03:58:17.721Z,8.74
2023-04-21T04:01:20.872Z,8.63
2023-04-21T04:04:24.046Z,8.64
2023-04-21T04:07:26.809Z,8.62
2023-04-21T04:10:29.882Z,8.67
2023-04-21T04:13:32.548Z,8.65
2023-04-21T04:16:36.120Z,8.74
2023-04-21T04:19:38.809Z,8.82
2023-04-21T04:22:41.745Z,8.85
2023-04-21T04:25:44.493Z,9.05
2023-04-21T04:28:47.956Z,9.22
2023-04-21T04:31:51.275Z,9.35
2023-04-21T04:34:55.985Z,9.47
2023-04-21T04:37:59.132Z,9.58
2023-04-21T04:41:02.467Z,9.48
2023-04-21T04:44:05.634Z,9.80
2023-04-21T04:47:08.862Z,10.01
2023-04-21T04:50:11.900Z,10.20
2023-04-21T04:53:14.869Z,10.50
2023-04-21T04:56:17.585Z,10.92
2023-04-21T04:59:20.844Z,11.85
2023-04-21T05:02:24.331Z,13.48
2023-04-21T05:05:27.671Z,14.92
2023-04-21T05:08:30.490Z,15.69
2023-04-21T05:11:33.540Z,16.38
2023-04-21T05:14:36.151Z,16.22
2023-04-21T05:17:39.196Z,16.93
2023-04-21T05:20:42.578Z,18.11
2023-04-21T05:23:45.928Z,18.72
2023-04-21T05:26:48.818Z,19.41
2023-04-21T05:29:51.802Z,19.40
2023-04-21T05:32:54.560Z,19.82
2023-04-21T05:35:57.568Z,19.29
2023-04-21T05:39:00.350Z,20.70
2023-04-21T05:42:03.620Z,21.58
2023-04-21T05:45:06.838Z,21.35
2023-04-21T05:48:11.188Z,21.33
2023-04-21T05:51:15.900Z,20.94
2023-04-21T05:54:19.691Z,19.91
2023-04-21T05:57:22.515Z,22.20
2023-04-21T06:00:25.903Z,21.99
2023-04-21T06:03:31.897Z,22.81
2023-04-21T06:06:34.819Z,22.30
2023-04-21T06:09:38.369Z,23.07
2023-04-21T06:12:41.106Z,22.91
2023-04-21T06:15:44.131Z,23.89
2023-04-21T06:18:47.071Z,23.33
2023-04-21T06:21:50.288Z,24.05
2023-04-21T06:24:53.050Z,22.39
2023-04-21T06:27:56.665Z,22.08
2023-04-21T06:31:00.361Z,22.73
2023-04-21T06:34:03.343Z,23.12
2023-04-21T06:37:06.148Z,22.77
2023-04-21T06:40:09.411Z,23.35
2023-04-21T06:43:12.103Z,21.36
2023-04-21T06:46:15.064Z,23.31
2023-04-21T06:49:18.029Z,23.32
2023-04-21T06:52:21.405Z,22.88
2023-04-21T06:55:24.127Z,23.45
2023-04-21T06:58:27.292Z,24.33
2023-04-21T07:01:30.008Z,25.88
2023-04-21T07:04:33.007Z,25.26
2023-04-21T07:07:35.825Z,24.60
2023-04-21T07:10:38.806Z,24.45
2023-04-21T07:13:41.717Z,22.93
2023-04-21T07:16:44.732Z,24.42
2023-04-21T07:19:47.488Z,25.03
2023-04-21T07:22:50.497Z,26.85
2023-04-21T07:25:53.578Z,26.41
2023-04-21T07:28:58.578Z,26.22
2023-04-21T07:32:01.267Z,26.53
2023-04-21T07:35:05.881Z,26.51
2023-04-21T07:38:08.980Z,26.19
2023-04-21T07:41:13.108Z,27.11
2023-04-21T07:44:15.743Z,27.01
2023-04-21T07:47:18.687Z,25.92
2023-04-21T07:50:21.323Z,26.95
2023-04-21T07:53:24.557Z,25.48
2023-04-21T07:56:27.668Z,26.53
2023-04-21T07:59:30.639Z,26.63
2023-04-21T08:02:33.671Z,25.59
2023-04-21T08:05:40.020Z,25.83
2023-04-21T08:08:44.183Z,25.88
2023-04-21T08:11:47.442Z,27.55
2023-04-21T08:14:50.157Z,27.55
2023-04-21T08:17:53.400Z,26.82
2023-04-21T08:20:58.041Z,28.15
2023-04-21T08:24:01.128Z,28.09
2023-04-21T08:27:03.826Z,27.39
2023-04-21T08:30:07.787Z,26.70
2023-04-21T08:33:13.840Z,25.00
2023-04-21T08:36:28.397Z,25.64
2023-04-21T08:39:32.388Z,25.26
2023-04-21T08:42:37.046Z,26.57
2023-04-21T08:45:40.707Z,24.57
2023-04-21T08:48:43.931Z,25.22
2023-04-21T08:51:47.843Z,27.15
2023-04-21T08:54:53.015Z,25.84
2023-04-21T08:57:55.789Z,23.95
2023-04-21T09:00:58.802Z,20.62
2023-04-21T09:04:18.297Z,20.21
2023-04-21T09:07:39.405Z,17.87
2023-04-21T09:10:53.996Z,17.84
2023-04-21T09:13:58.542Z,17.59
2023-04-21T09:17:03.454Z,17.39
2023-04-21T09:20:21.397Z,17.39
2023-04-21T09:23:24.148Z,17.12
2023-04-21T09:26:27.190Z,17.47
2023-04-21T09:29:30.386Z,16.96
2023-04-21T09:32:40.567Z,17.24
2023-04-21T09:35:43.589Z,18.00
2023-04-21T09:42:11.666Z,17.35
2023-04-21T09:48:22.680Z,17.52
2023-04-21T09:51:45.976Z,17.37
2023-04-21T09:54:52.302Z,17.71
2023-04-21T09:58:00.132Z,18.37
2023-04-21T10:01:04.662Z,18.12
2023-04-21T10:04:08.148Z,18.22
2023-04-21T10:07:11.807Z,17.96
2023-04-21T10:10:27.367Z,18.20
2023-04-21T10:13:31.052Z,18.15
2023-04-21T10:16:37.096Z,17.99
2023-04-21T10:19:50.167Z,17.65
2023-04-21T10:22:58.720Z,17.78
2023-04-21T10:26:35.049Z,18.29
2023-04-21T10:29:52.548Z,18.29
2023-04-21T10:33:03.918Z,18.07
2023-04-21T10:36:07.426Z,18.08
2023-04-21T10:39:13.056Z,18.06
2023-04-21T10:42:16.066Z,18.09
2023-04-21T10:45:18.784Z,18.11
2023-04-21T10:48:22.611Z,17.98
2023-04-21T10:51:25.650Z,17.89
2023-04-21T10:54:36.730Z,17.71
2023-04-21T10:57:44.342Z,17.74
2023-04-21T11:00:47.700Z,18.20
2023-04-21T11:03:50.719Z,18.00
2023-04-21T11:07:12.320Z,18.14
2023-04-21T11:10:17.310Z,18.08
2023-04-21T11:13:26.086Z,17.65
2023-04-21T11:16:28.862Z,18.47
2023-04-21T11:19:34.861Z,18.43
2023-04-21T11:22:38.842Z,18.29
2023-04-21T11:25:47.097Z,18.09
2023-04-21T11:28:51.314Z,17.78
2023-04-21T11:31:54.369Z,17.72
2023-04-21T11:34:57.000Z,17.84
2023-04-21T11:38:05.525Z,17.74
2023-04-21T11:41:10.727Z,18.12
2023-04-21T11:44:29.956Z,17.85
2023-04-21T11:47:33.150Z,18.10
2023-04-21T11:50:39.007Z,17.89
2023-04-21T11:53:41.900Z,17.95
2023-04-21T11:56:48.502Z,18.01
2023-04-21T11:59:51.967Z,18.13
2023-04-21T12:02:57.057Z,18.16
2023-04-21T12:06:00.433Z,18.13
2023-04-21T12:09:03.504Z,17.87
2023-04-21T12:12:06.487Z,17.96
2023-04-21T12:15:11.133Z,17.94
2023-04-21T12:18:14.441Z,18.22
2023-04-21T12:21:30.391Z,18.13
2023-04-21T12:24:34.925Z,18.26
2023-04-21T12:27:48.456Z,18.31
2023-04-21T12:30:51.395Z,18.21
2023-04-21T12:33:54.085Z,18.12
2023-04-21T12:36:57.151Z,18.14
2023-04-21T12:39:59.862Z,18.58
2023-04-21T12:43:02.849Z,18.30
2023-04-21T12:46:05.786Z,18.34
2023-04-21T12:49:10.123Z,18.55
2023-04-21T12:52:13.002Z,18.48
2023-04-21T12:55:16.123Z,18.47
2023-04-21T12:58:18.859Z,18.43
2023-04-21T13:01:22.350Z,18.45
2023-04-21T13:04:25.332Z,18.05
2023-04-21T13:07:31.488Z,18.16
2023-04-21T13:10:34.211Z,18.39
2023-04-21T13:13:37.382Z,18.13
2023-04-21T13:16:40.851Z,18.00
2023-04-21T13:19:43.938Z,18.21
2023-04-21T13:22:46.819Z,18.22
2023-04-21T13:25:50.922Z,18.43
2023-04-21T13:28:53.608Z,18.43
2023-04-21T13:31:57.082Z,18.39
2023-04-21T13:34:59.868Z,18.44
2023-04-21T13:38:02.816Z,18.39
2023-04-21T13:41:05.689Z,18.49
2023-04-21T13:44:08.653Z,18.38
2023-04-21T13:47:11.581Z,18.61
2023-04-21T13:50:14.662Z,18.37
2023-04-21T13:53:19.902Z,18.40
2023-04-21T13:56:24.670Z,18.64
2023-04-21T13:59:27.927Z,18.43
2023-04-21T14:02:31.171Z,18.78
2023-04-21T14:05:35.431Z,18.80
2023-04-21T14:08:38.367Z,18.82
2023-04-21T14:11:41.403Z,18.69
2023-04-21T14:14:44.075Z,18.64
2023-04-21T14:17:47.135Z,18.57
2023-04-21T14:20:50.333Z,18.72
2023-04-21T14:23:53.436Z,18.42
2023-04-21T14:26:56.568Z,18.39
2023-04-21T14:30:00.402Z,18.41
2023-04-21T14:33:04.292Z,18.65
2023-04-21T14:36:07.505Z,18.47
2023-04-21T14:39:10.419Z,18.31
2023-04-21T14:42:13.536Z,18.14
2023-04-21T14:45:16.311Z,18.03
2023-04-21T14:48:19.504Z,18.33
2023-04-21T14:51:22.377Z,18.21
2023-04-21T14:54:25.370Z,18.18
2023-04-21T14:57:28.027Z,18.23
2023-04-21T15:00:32.126Z,17.94
2023-04-21T15:03:35.167Z,18.08
2023-04-21T15:06:38.242Z,17.79
2023-04-21T15:09:45.656Z,17.96
2023-04-21T15:12:48.902Z,17.91
2023-04-21T15:15:52.389Z,17.88
2023-04-21T15:18:55.806Z,18.01
2023-04-21T15:21:58.688Z,18.07
2023-04-21T15:25:01.682Z,17.97
2023-04-21T15:28:04.489Z,17.91
2023-04-21T15:31:09.785Z,17.91
2023-04-21T15:34:12.799Z,17.77
2023-04-21T15:37:17.620Z,17.84
2023-04-21T15:40:20.364Z,17.70
2023-04-21T15:43:25.838Z,17.79
2023-04-21T15:46:28.800Z,17.75
2023-04-21T15:49:31.829Z,17.61
2023-04-21T15:52:37.161Z,17.46
2023-04-21T15:55:40.212Z,17.38
2023-04-21T15:58:43.502Z,17.27
2023-04-21T16:01:46.610Z,17.19
2023-04-21T16:04:49.973Z,17.01
2023-04-21T16:07:52.779Z,16.88
2023-04-21T16:10:56.467Z,16.80
2023-04-21T16:13:59.185Z,16.69
2023-04-21T16:17:02.379Z,16.57
2023-04-21T16:20:05.785Z,16.47
2023-04-21T16:23:09.654Z,16.39
2023-04-21T16:26:12.413Z,16.27
2023-04-21T16:29:15.723Z,16.11
2023-04-21T16:32:18.785Z,16.19
2023-04-21T16:35:21.888Z,16.11
2023-04-21T16:38:25.080Z,16.02
2023-04-21T16:41:28.297Z,16.06
2023-04-21T16:44:31.087Z,16.05
2023-04-21T16:47:41.558Z,16.02
2023-04-21T16:50:45.631Z,15.92
2023-04-21T16:53:48.588Z,15.95
2023-04-21T16:56:51.598Z,15.97
2023-04-21T16:59:55.017Z,15.93
2023-04-21T17:02:57.810Z,16.02
2023-04-21T17:06:01.518Z,16.05
2023-04-21T17:09:04.603Z,16.01
2023-04-21T17:12:07.812Z,16.03
2023-04-21T17:15:11.867Z,15.98
2023-04-21T17:18:15.380Z,15.89
2023-04-21T17:21:18.192Z,15.83
2023-04-21T17:24:21.244Z,15.64
2023-04-21T17:27:23.922Z,15.61
2023-04-21T17:30:26.938Z,15.43
2023-04-21T17:33:29.728Z,15.36
2023-04-21T17:36:32.860Z,15.20
2023-04-21T17:39:36.011Z,15.06
2023-04-21T17:42:40.368Z,14.94
2023-04-21T17:45:44.823Z,14.94
2023-04-21T17:48:48.713Z,14.78
2023-04-21T17:51:51.734Z,14.72
2023-04-21T17:54:54.833Z,14.67
2023-04-21T17:57:57.600Z,14.55
2023-04-21T18:01:00.639Z,14.44
2023-04-21T18:04:04.835Z,14.32
2023-04-21T18:07:07.820Z,14.13
2023-04-21T18:10:11.228Z,14.05
2023-04-21T18:13:16.370Z,13.90
2023-04-21T18:16:19.524Z,13.63
2023-04-21T18:19:22.449Z,13.49
2023-04-21T18:22:26.120Z,13.31
2023-04-21T18:25:41.360Z,13.18
2023-04-21T18:28:46.083Z,13.00
2023-04-21T18:31:48.741Z,12.76
2023-04-21T18:34:51.905Z,12.58
2023-04-21T18:37:54.659Z,12.34
2023-04-21T18:40:57.697Z,12.04
2023-04-21T18:44:00.383Z,11.86
2023-04-21T18:47:03.513Z,11.64
2023-04-21T18:50:08.640Z,11.41
2023-04-21T18:53:11.699Z,11.35
2023-04-21T18:56:14.347Z,11.21
2023-04-21T18:59:17.604Z,11.03
2023-04-21T19:02:20.399Z,10.91
2023-04-21T19:05:23.730Z,10.77
2023-04-21T19:08:40.859Z,10.60
2023-04-21T19:11:45.655Z,10.33
2023-04-21T19:14:49.119Z,10.23
2023-04-21T19:17:52.478Z,10.11
2023-04-21T19:20:55.153Z,9.95
2023-04-21T19:23:58.277Z,9.81
2023-04-21T19:27:05.501Z,9.67
2023-04-21T19:30:09.239Z,9.54
2023-04-21T19:33:12.056Z,9.37
2023-04-21T19:36:15.110Z,9.40
2023-04-21T19:39:17.737Z,9.35
2023-04-21T19:42:20.751Z,9.15
2023-04-21T19:45:23.477Z,9.12
2023-04-21T19:48:26.807Z,9.05
2023-04-21T19:51:29.429Z,8.93
2023-04-21T19:54:33.000Z,8.88
2023-04-21T19:57:36.093Z,8.86
2023-04-21T20:00:39.310Z,8.83
2023-04-21T20:03:42.546Z,8.76
2023-04-21T20:06:45.837Z,8.61
2023-04-21T20:09:48.799Z,8.64
2023-04-21T20:12:51.536Z,8.65
2023-04-21T20:15:55.412Z,8.61
2023-04-21T20:18:58.435Z,8.72
2023-04-21T20:22:02.039Z,8.75
2023-04-21T20:25:06.060Z,8.78
2023-04-21T20:28:09.697Z,8.83
2023-04-21T20:31:12.441Z,8.87
2023-04-21T20:34:15.401Z,8.93
2023-04-21T20:37:18.105Z,8.99
2023-04-21T20:40:21.780Z,9.04
2023-04-21T20:43:24.555Z,9.03
2023-04-21T20:46:29.037Z,9.13
2023-04-21T20:49:31.797Z,9.15
2023-04-21T20:52:34.819Z,9.18
2023-04-21T20:55:37.610Z,9.21
2023-04-21T20:58:40.745Z,9.27
2023-04-21T21:01:44.649Z,9.27
2023-04-21T21:04:47.856Z,9.39
2023-04-21T21:07:50.865Z,9.35
2023-04-21T21:10:53.944Z,9.45
2023-04-21T21:13:56.800Z,9.46
2023-04-21T21:17:01.254Z,9.43
2023-04-21T21:20:05.056Z,9.41
2023-04-21T21:23:08.122Z,9.40
2023-04-21T21:26:10.973Z,9.38
2023-04-21T21:29:13.973Z,9.39
2023-04-21T21:32:16.978Z,9.42
2023-04-21T21:35:19.922Z,9.40
2023-04-21T21:38:22.746Z,9.38
2023-04-21T21:41:25.806Z,9.33
2023-04-21T21:44:28.929Z,9.36
2023-04-21T21:47:35.974Z,9.34
2023-04-21T21:50:40.564Z,9.35
2023-04-21T21:53:43.716Z,9.35
2023-04-21T21:56:47.097Z,9.28
2023-04-21T21:59:50.347Z,9.33
2023-04-21T22:02:53.071Z,9.26
2023-04-21T22:05:56.191Z,9.32
2023-04-21T22:08:59.215Z,9.30
2023-04-21T22:12:09.545Z,9.29
2023-04-21T22:15:12.198Z,9.25
2023-04-21T22:18:18.421Z,9.21
2023-04-21T22:21:21.140Z,9.11
2023-04-21T22:24:24.061Z,8.98
2023-04-21T22:27:26.730Z,8.85
2023-04-21T22:30:31.030Z,8.69
2023-04-21T22:33:33.762Z,8.54
2023-04-21T22:36:37.256Z,8.44
2023-04-21T22:39:40.401Z,8.30
2023-04-21T22:42:43.833Z,8.20
2023-04-21T22:45:46.532Z,8.02
2023-04-21T22:48:51.277Z,7.98
2023-04-21T22:51:54.486Z,7.89
2023-04-21T22:54:57.527Z,7.77
2023-04-21T22:58:00.229Z,7.62
2023-04-21T23:01:03.369Z,7.48
2023-04-21T23:04:06.190Z,7.38
2023-04-21T23:07:09.240Z,7.23
2023-04-21T23:10:11.886Z,7.15
2023-04-21T23:13:14.828Z,7.01
2023-04-21T23:16:17.524Z,6.99
2023-04-21T23:19:20.967Z,6.88
2023-04-21T23:22:26.061Z,6.69
2023-04-21T23:25:29.349Z,6.65
2023-04-21T23:28:31.997Z,6.60
2023-04-21T23:31:35.007Z,6.49
2023-04-21T23:34:37.869Z,6.53
2023-04-21T23:37:41.127Z,6.51
2023-04-21T23:40:43.890Z,6.45
2023-04-21T23:43:47.066Z,6.41
2023-04-21T23:46:49.806Z,6.35
2023-04-21T23:49:52.928Z,6.27
2023-04-21T23:52:55.998Z,6.18
2023-04-21T23:55:59.175Z,6.04
2023-04-21T23:59:02.133Z,5.88
